sensor_id;sensor_type;location;lat;lon;timestamp;pressure;altitude;pressure_sealevel;temperature;humidity
44765;BME280;30484;52.382;5.260;2023-04-28T00:00:11;101536.78;;;12.73;100.00
44765;BME280;30484;52.382;5.260;2023-04-28T00:02:41;101530.25;;;12.78;100.00
44765;BME280;30484;52.382;5.260;2023-04-28T00:05:09;101527.94;;;12.90;100.00
44765;BME280;30484;52.382;5.260;2023-04-28T00:07:38;101528.09;;;13.41;100.00
44765;BME280;30484;52.382;5.260;2023-04-28T00:10:08;101533.84;;;12.97;100.00
44765;BME280;30484;52.382;5.260;2023-04-28T00:12:37;101520.25;;;12.82;100.00
44765;BME280;30484;52.382;5.260;2023-04-28T00:15:07;101516.38;;;13.24;100.00
44765;BME280;30484;52.382;5.260;2023-04-28T00:17:37;101505.81;;;13.21;100.00
44765;BME280;30484;52.382;5.260;2023-04-28T00:20:10;101503.09;;;13.04;100.00
44765;BME280;30484;52.382;5.260;2023-04-28T00:22:39;101499.09;;;12.76;100.00
44765;BME280;30484;52.382;5.260;2023-04-28T00:25:08;101504.41;;;12.95;100.00
44765;BME280;30484;52.382;5.260;2023-04-28T00:27:44;101492.03;;;12.92;100.00
44765;BME280;30484;52.382;5.260;2023-04-28T00:30:13;101488.97;;;13.00;100.00
44765;BME280;30484;52.382;5.260;2023-04-28T00:32:41;101485.47;;;12.81;100.00
44765;BME280;30484;52.382;5.260;2023-04-28T00:35:11;101463.31;;;12.58;100.00
44765;BME280;30484;52.382;5.260;2023-04-28T00:37:39;101455.28;;;12.94;100.00
44765;BME280;30484;52.382;5.260;2023-04-28T00:40:08;101464.75;;;12.84;100.00
44765;BME280;30484;52.382;5.260;2023-04-28T00:42:37;101465.34;;;12.72;100.00
44765;BME280;30484;52.382;5.260;2023-04-28T00:45:06;101462.97;;;12.47;100.00
44765;BME280;30484;52.382;5.260;2023-04-28T00:47:36;101458.44;;;12.49;100.00
44765;BME280;30484;52.382;5.260;2023-04-28T00:50:06;101454.19;;;12.99;100.00
44765;BME280;30484;52.382;5.260;2023-04-28T00:52:38;101457.88;;;12.78;100.00
44765;BME280;30484;52.382;5.260;2023-04-28T00:55:07;101449.75;;;12.05;100.00
44765;BME280;30484;52.382;5.260;2023-04-28T00:57:36;101448.25;;;12.74;100.00
44765;BME280;30484;52.382;5.260;2023-04-28T01:00:09;101454.25;;;12.43;100.00
44765;BME280;30484;52.382;5.260;2023-04-28T01:02:38;101453.84;;;12.51;100.00
44765;BME280;30484;52.382;5.260;2023-04-28T01:05:08;101458.53;;;12.65;100.00
44765;BME280;30484;52.382;5.260;2023-04-28T01:07:38;101449.75;;;12.98;100.00
44765;BME280;30484;52.382;5.260;2023-04-28T01:10:08;101448.75;;;12.64;100.00
44765;BME280;30484;52.382;5.260;2023-04-28T01:12:37;101439.34;;;12.91;100.00
44765;BME280;30484;52.382;5.260;2023-04-28T01:15:08;101449.75;;;12.80;100.00
44765;BME280;30484;52.382;5.260;2023-04-28T01:17:39;101451.66;;;12.95;100.00
44765;BME280;30484;52.382;5.260;2023-04-28T01:20:09;101448.59;;;12.11;100.00
44765;BME280;30484;52.382;5.260;2023-04-28T01:22:39;101453.06;;;12.30;100.00
44765;BME280;30484;52.382;5.260;2023-04-28T01:25:10;101439.50;;;12.88;100.00
44765;BME280;30484;52.382;5.260;2023-04-28T01:27:40;101431.84;;;12.44;100.00
44765;BME280;30484;52.382;5.260;2023-04-28T01:30:10;101423.72;;;13.00;100.00
44765;BME280;30484;52.382;5.260;2023-04-28T01:32:39;101422.78;;;12.83;100.00
44765;BME280;30484;52.382;5.260;2023-04-28T01:35:08;101422.97;;;12.24;100.00
44765;BME280;30484;52.382;5.260;2023-04-28T01:37:37;101419.31;;;12.25;100.00
44765;BME280;30484;52.382;5.260;2023-04-28T01:40:09;101422.81;;;12.28;100.00
44765;BME280;30484;52.382;5.260;2023-04-28T01:42:38;101430.91;;;12.45;100.00
44765;BME280;30484;52.382;5.260;2023-04-28T01:45:08;101422.09;;;12.60;100.00
44765;BME280;30484;52.382;5.260;2023-04-28T01:47:36;101415.44;;;12.33;100.00
44765;BME280;30484;52.382;5.260;2023-04-28T01:50:06;101412.38;;;12.77;100.00
44765;BME280;30484;52.382;5.260;2023-04-28T01:52:35;101421.53;;;12.54;100.00
44765;BME280;30484;52.382;5.260;2023-04-28T01:55:05;101411.00;;;12.68;100.00
44765;BME280;30484;52.382;5.260;2023-04-28T01:57:36;101404.59;;;12.53;100.00
44765;BME280;30484;52.382;5.260;2023-04-28T02:00:06;101398.22;;;12.56;100.00
44765;BME280;30484;52.382;5.260;2023-04-28T02:02:35;101397.66;;;12.49;100.00
44765;BME280;30484;52.382;5.260;2023-04-28T02:05:05;101393.38;;;12.08;100.00
44765;BME280;30484;52.382;5.260;2023-04-28T02:07:34;101399.38;;;12.33;100.00
44765;BME280;30484;52.382;5.260;2023-04-28T02:10:03;101396.41;;;12.01;100.00
44765;BME280;30484;52.382;5.260;2023-04-28T02:12:31;101391.59;;;12.26;100.00
44765;BME280;30484;52.382;5.260;2023-04-28T02:15:03;101395.22;;;12.45;100.00
44765;BME280;30484;52.382;5.260;2023-04-28T02:17:32;101389.06;;;12.23;100.00
44765;BME280;30484;52.382;5.260;2023-04-28T02:20:00;101389.28;;;12.55;100.00
44765;BME280;30484;52.382;5.260;2023-04-28T02:22:29;101382.72;;;12.26;100.00
44765;BME280;30484;52.382;5.260;2023-04-28T02:24:57;101381.88;;;12.43;100.00
44765;BME280;30484;52.382;5.260;2023-04-28T02:27:25;101371.66;;;12.51;100.00
44765;BME280;30484;52.382;5.260;2023-04-28T02:29:53;101371.00;;;11.71;100.00
44765;BME280;30484;52.382;5.260;2023-04-28T02:32:23;101370.34;;;12.04;100.00
44765;BME280;30484;52.382;5.260;2023-04-28T02:34:52;101375.59;;;12.25;100.00
44765;BME280;30484;52.382;5.260;2023-04-28T02:37:21;101369.59;;;12.56;100.00
44765;BME280;30484;52.382;5.260;2023-04-28T02:39:50;101368.38;;;12.27;100.00
44765;BME280;30484;52.382;5.260;2023-04-28T02:42:19;101355.69;;;12.48;100.00
44765;BME280;30484;52.382;5.260;2023-04-28T02:44:49;101365.03;;;12.76;100.00
44765;BME280;30484;52.382;5.260;2023-04-28T02:47:17;101355.50;;;12.53;100.00
44765;BME280;30484;52.382;5.260;2023-04-28T02:49:48;101341.94;;;12.56;100.00
44765;BME280;30484;52.382;5.260;2023-04-28T02:52:18;101341.78;;;12.22;100.00
44765;BME280;30484;52.382;5.260;2023-04-28T02:54:47;101328.28;;;12.95;100.00
44765;BME280;30484;52.382;5.260;2023-04-28T02:57:21;101329.47;;;12.90;100.00
44765;BME280;30484;52.382;5.260;2023-04-28T02:59:51;101326.16;;;12.85;100.00
44765;BME280;30484;52.382;5.260;2023-04-28T03:02:19;101327.31;;;12.44;100.00
44765;BME280;30484;52.382;5.260;2023-04-28T03:04:51;101312.69;;;12.69;100.00
44765;BME280;30484;52.382;5.260;2023-04-28T03:07:20;101306.19;;;12.38;100.00
44765;BME280;30484;52.382;5.260;2023-04-28T03:09:49;101306.84;;;12.60;100.00
44765;BME280;30484;52.382;5.260;2023-04-28T03:12:19;101305.19;;;12.40;100.00
44765;BME280;30484;52.382;5.260;2023-04-28T03:14:47;101304.50;;;12.54;100.00
44765;BME280;30484;52.382;5.260;2023-04-28T03:17:16;101302.75;;;12.71;100.00
44765;BME280;30484;52.382;5.260;2023-04-28T03:19:54;101297.84;;;12.44;100.00
44765;BME280;30484;52.382;5.260;2023-04-28T03:22:24;101304.41;;;12.73;100.00
44765;BME280;30484;52.382;5.260;2023-04-28T03:24:53;101299.94;;;12.20;100.00
44765;BME280;30484;52.382;5.260;2023-04-28T03:27:24;101280.91;;;12.26;100.00
44765;BME280;30484;52.382;5.260;2023-04-28T03:29:53;101283.84;;;12.39;100.00
44765;BME280;30484;52.382;5.260;2023-04-28T03:32:22;101272.19;;;12.40;100.00
44765;BME280;30484;52.382;5.260;2023-04-28T03:34:54;101263.00;;;12.09;100.00
44765;BME280;30484;52.382;5.260;2023-04-28T03:37:23;101261.25;;;12.78;100.00
44765;BME280;30484;52.382;5.260;2023-04-28T03:39:52;101251.03;;;12.69;100.00
44765;BME280;30484;52.382;5.260;2023-04-28T03:42:22;101243.91;;;11.98;100.00
44765;BME280;30484;52.382;5.260;2023-04-28T03:44:52;101240.63;;;12.10;100.00
44765;BME280;30484;52.382;5.260;2023-04-28T03:47:22;101241.03;;;12.37;100.00
44765;BME280;30484;52.382;5.260;2023-04-28T03:49:51;101222.81;;;12.26;100.00
44765;BME280;30484;52.382;5.260;2023-04-28T03:52:22;101230.69;;;11.95;100.00
44765;BME280;30484;52.382;5.260;2023-04-28T03:54:51;101230.25;;;11.85;100.00
44765;BME280;30484;52.382;5.260;2023-04-28T03:57:20;101232.44;;;12.48;100.00
44765;BME280;30484;52.382;5.260;2023-04-28T03:59:49;101226.22;;;12.48;100.00
44765;BME280;30484;52.382;5.260;2023-04-28T04:02:20;101231.88;;;12.06;100.00
44765;BME280;30484;52.382;5.260;2023-04-28T04:04:52;101211.50;;;12.21;100.00
44765;BME280;30484;52.382;5.260;2023-04-28T04:07:23;101218.56;;;12.05;100.00
44765;BME280;30484;52.382;5.260;2023-04-28T04:09:53;101208.88;;;12.02;100.00
44765;BME280;30484;52.382;5.260;2023-04-28T04:12:22;101228.03;;;12.47;100.00
44765;BME280;30484;52.382;5.260;2023-04-28T04:14:51;101223.78;;;12.43;100.00
44765;BME280;30484;52.382;5.260;2023-04-28T04:17:20;101219.66;;;12.53;100.00
44765;BME280;30484;52.382;5.260;2023-04-28T04:19:48;101210.78;;;12.53;100.00
44765;BME280;30484;52.382;5.260;2023-04-28T04:22:18;101207.13;;;12.71;100.00
44765;BME280;30484;52.382;5.260;2023-04-28T04:24:49;101202.66;;;12.19;100.00
44765;BME280;30484;52.382;5.260;2023-04-28T04:27:20;101212.88;;;12.11;100.00
44765;BME280;30484;52.382;5.260;2023-04-28T04:29:53;101215.72;;;12.25;100.00
44765;BME280;30484;52.382;5.260;2023-04-28T04:32:23;101216.13;;;11.81;100.00
44765;BME280;30484;52.382;5.260;2023-04-28T04:34:55;101217.38;;;12.63;100.00
44765;BME280;30484;52.382;5.260;2023-04-28T04:37:26;101215.09;;;12.38;100.00
44765;BME280;30484;52.382;5.260;2023-04-28T04:40:02;101207.50;;;12.64;100.00
44765;BME280;30484;52.382;5.260;2023-04-28T04:42:31;101197.63;;;11.96;100.00
44765;BME280;30484;52.382;5.260;2023-04-28T04:45:20;101197.47;;;12.16;100.00
44765;BME280;30484;52.382;5.260;2023-04-28T04:48:01;101204.88;;;12.80;100.00
44765;BME280;30484;52.382;5.260;2023-04-28T04:50:42;101208.59;;;12.08;100.00
44765;BME280;30484;52.382;5.260;2023-04-28T04:53:46;101202.41;;;12.59;100.00
44765;BME280;30484;52.382;5.260;2023-04-28T04:56:26;101198.78;;;11.90;100.00
44765;BME280;30484;52.382;5.260;2023-04-28T04:59:21;101191.22;;;12.84;100.00
44765;BME280;30484;52.382;5.260;2023-04-28T05:01:51;101192.31;;;12.47;100.00
44765;BME280;30484;52.382;5.260;2023-04-28T05:04:21;101197.63;;;12.31;100.00
44765;BME280;30484;52.382;5.260;2023-04-28T05:06:53;101199.50;;;12.80;100.00
44765;BME280;30484;52.382;5.260;2023-04-28T05:09:23;101188.66;;;13.30;100.00
44765;BME280;30484;52.382;5.260;2023-04-28T05:11:53;101185.53;;;13.22;100.00
44765;BME280;30484;52.382;5.260;2023-04-28T05:15:05;101177.28;;;12.26;100.00
44765;BME280;30484;52.382;5.260;2023-04-28T05:18:09;101172.47;;;12.84;100.00
44765;BME280;30484;52.382;5.260;2023-04-28T05:21:54;101186.22;;;12.27;100.00
44765;BME280;30484;52.382;5.260;2023-04-28T05:24:33;101186.91;;;12.31;100.00
44765;BME280;30484;52.382;5.260;2023-04-28T05:27:07;101182.47;;;12.81;100.00
44765;BME280;30484;52.382;5.260;2023-04-28T05:29:39;101190.06;;;13.22;100.00
44765;BME280;30484;52.382;5.260;2023-04-28T05:32:10;101200.50;;;13.10;100.00
44765;BME280;30484;52.382;5.260;2023-04-28T05:34:42;101194.03;;;12.99;100.00
44765;BME280;30484;52.382;5.260;2023-04-28T05:37:12;101203.56;;;13.20;100.00
44765;BME280;30484;52.382;5.260;2023-04-28T05:39:40;101216.22;;;13.18;100.00
44765;BME280;30484;52.382;5.260;2023-04-28T05:42:16;101222.28;;;13.38;100.00
44765;BME280;30484;52.382;5.260;2023-04-28T05:44:45;101215.56;;;13.62;100.00
44765;BME280;30484;52.382;5.260;2023-04-28T05:47:17;101189.75;;;13.60;100.00
44765;BME280;30484;52.382;5.260;2023-04-28T05:49:48;101166.53;;;13.27;100.00
44765;BME280;30484;52.382;5.260;2023-04-28T05:52:17;101142.09;;;12.84;100.00
44765;BME280;30484;52.382;5.260;2023-04-28T05:54:46;101125.84;;;12.20;100.00
44765;BME280;30484;52.382;5.260;2023-04-28T05:57:18;101101.34;;;11.75;100.00
44765;BME280;30484;52.382;5.260;2023-04-28T05:59:49;101082.28;;;11.81;100.00
44765;BME280;30484;52.382;5.260;2023-04-28T06:02:20;101069.41;;;11.54;100.00
44765;BME280;30484;52.382;5.260;2023-04-28T06:04:52;101065.41;;;10.90;100.00
44765;BME280;30484;52.382;5.260;2023-04-28T06:07:23;101075.84;;;11.50;100.00
44765;BME280;30484;52.382;5.260;2023-04-28T06:09:52;101085.44;;;11.54;100.00
44765;BME280;30484;52.382;5.260;2023-04-28T06:12:22;101093.59;;;11.34;100.00
44765;BME280;30484;52.382;5.260;2023-04-28T06:14:50;101123.53;;;11.60;100.00
44765;BME280;30484;52.382;5.260;2023-04-28T06:17:22;101147.34;;;11.66;100.00
44765;BME280;30484;52.382;5.260;2023-04-28T06:19:51;101156.78;;;12.43;100.00
44765;BME280;30484;52.382;5.260;2023-04-28T06:22:21;101165.47;;;12.98;100.00
44765;BME280;30484;52.382;5.260;2023-04-28T06:24:49;101168.41;;;13.09;100.00
44765;BME280;30484;52.382;5.260;2023-04-28T06:27:18;101173.22;;;12.86;100.00
44765;BME280;30484;52.382;5.260;2023-04-28T06:29:48;101179.31;;;13.22;100.00
44765;BME280;30484;52.382;5.260;2023-04-28T06:32:20;101172.78;;;13.43;100.00
44765;BME280;30484;52.382;5.260;2023-04-28T06:34:49;101180.06;;;13.41;100.00
44765;BME280;30484;52.382;5.260;2023-04-28T06:37:17;101174.66;;;13.57;100.00
44765;BME280;30484;52.382;5.260;2023-04-28T06:39:46;101183.59;;;13.74;100.00
44765;BME280;30484;52.382;5.260;2023-04-28T06:42:15;101183.81;;;13.69;100.00
44765;BME280;30484;52.382;5.260;2023-04-28T06:44:45;101185.31;;;13.59;100.00
44765;BME280;30484;52.382;5.260;2023-04-28T06:47:15;101174.22;;;13.81;100.00
44765;BME280;30484;52.382;5.260;2023-04-28T06:49:45;101177.81;;;13.96;100.00
44765;BME280;30484;52.382;5.260;2023-04-28T06:52:16;101179.63;;;13.95;100.00
44765;BME280;30484;52.382;5.260;2023-04-28T06:54:53;101178.34;;;14.17;100.00
44765;BME280;30484;52.382;5.260;2023-04-28T06:57:23;101162.94;;;14.05;100.00
44765;BME280;30484;52.382;5.260;2023-04-28T06:59:51;101162.72;;;13.93;100.00
44765;BME280;30484;52.382;5.260;2023-04-28T07:02:23;101158.75;;;13.54;100.00
44765;BME280;30484;52.382;5.260;2023-04-28T07:04:54;101162.81;;;13.92;100.00
44765;BME280;30484;52.382;5.260;2023-04-28T07:07:25;101164.50;;;13.78;100.00
44765;BME280;30484;52.382;5.260;2023-04-28T07:09:53;101156.28;;;13.81;100.00
44765;BME280;30484;52.382;5.260;2023-04-28T07:12:22;101149.56;;;13.58;100.00
44765;BME280;30484;52.382;5.260;2023-04-28T07:14:51;101160.31;;;13.58;100.00
44765;BME280;30484;52.382;5.260;2023-04-28T07:17:23;101152.13;;;13.28;100.00
44765;BME280;30484;52.382;5.260;2023-04-28T07:19:52;101150.44;;;13.43;100.00
44765;BME280;30484;52.382;5.260;2023-04-28T07:22:21;101147.75;;;13.59;100.00
44765;BME280;30484;52.382;5.260;2023-04-28T07:24:50;101157.31;;;13.79;100.00
44765;BME280;30484;52.382;5.260;2023-04-28T07:27:18;101161.53;;;13.37;100.00
44765;BME280;30484;52.382;5.260;2023-04-28T07:29:49;101152.69;;;13.97;100.00
44765;BME280;30484;52.382;5.260;2023-04-28T07:32:18;101146.50;;;13.01;100.00
44765;BME280;30484;52.382;5.260;2023-04-28T07:34:49;101129.72;;;13.91;100.00
44765;BME280;30484;52.382;5.260;2023-04-28T07:37:18;101128.88;;;14.64;100.00
44765;BME280;30484;52.382;5.260;2023-04-28T07:39:47;101134.78;;;14.41;100.00
44765;BME280;30484;52.382;5.260;2023-04-28T07:42:17;101139.81;;;14.47;100.00
44765;BME280;30484;52.382;5.260;2023-04-28T07:44:47;101125.41;;;14.48;100.00
44765;BME280;30484;52.382;5.260;2023-04-28T07:47:18;101136.28;;;14.75;100.00
44765;BME280;30484;52.382;5.260;2023-04-28T07:49:48;101127.06;;;14.79;100.00
44765;BME280;30484;52.382;5.260;2023-04-28T07:52:17;101129.25;;;14.87;100.00
44765;BME280;30484;52.382;5.260;2023-04-28T07:54:46;101127.50;;;14.57;100.00
44765;BME280;30484;52.382;5.260;2023-04-28T07:57:20;101121.59;;;14.66;100.00
44765;BME280;30484;52.382;5.260;2023-04-28T07:59:49;101119.41;;;15.15;100.00
44765;BME280;30484;52.382;5.260;2023-04-28T08:02:17;101131.38;;;14.96;100.00
44765;BME280;30484;52.382;5.260;2023-04-28T08:04:49;101134.94;;;14.82;100.00
44765;BME280;30484;52.382;5.260;2023-04-28T08:07:18;101123.63;;;15.05;100.00
44765;BME280;30484;52.382;5.260;2023-04-28T08:09:47;101123.94;;;15.42;100.00
44765;BME280;30484;52.382;5.260;2023-04-28T08:12:17;101130.34;;;15.81;100.00
44765;BME280;30484;52.382;5.260;2023-04-28T08:14:47;101126.31;;;16.14;100.00
44765;BME280;30484;52.382;5.260;2023-04-28T08:17:17;101115.16;;;15.93;100.00
44765;BME280;30484;52.382;5.260;2023-04-28T08:19:46;101125.06;;;15.52;100.00
44765;BME280;30484;52.382;5.260;2023-04-28T08:22:16;101120.50;;;14.98;100.00
44765;BME280;30484;52.382;5.260;2023-04-28T08:24:46;101126.28;;;15.33;100.00
44765;BME280;30484;52.382;5.260;2023-04-28T08:27:15;101124.06;;;14.55;100.00
44765;BME280;30484;52.382;5.260;2023-04-28T08:29:44;101115.16;;;15.25;100.00
44765;BME280;30484;52.382;5.260;2023-04-28T08:32:13;101118.97;;;14.94;100.00
44765;BME280;30484;52.382;5.260;2023-04-28T08:34:42;101120.22;;;15.30;100.00
44765;BME280;30484;52.382;5.260;2023-04-28T08:37:16;101111.91;;;15.60;100.00
44765;BME280;30484;52.382;5.260;2023-04-28T08:39:45;101112.47;;;15.25;100.00
44765;BME280;30484;52.382;5.260;2023-04-28T08:42:14;101116.09;;;14.97;100.00
44765;BME280;30484;52.382;5.260;2023-04-28T08:44:46;101112.28;;;14.72;100.00
44765;BME280;30484;52.382;5.260;2023-04-28T08:47:15;101101.97;;;14.50;100.00
44765;BME280;30484;52.382;5.260;2023-04-28T08:49:48;101099.97;;;15.24;100.00
44765;BME280;30484;52.382;5.260;2023-04-28T08:52:19;101097.09;;;15.13;100.00
44765;BME280;30484;52.382;5.260;2023-04-28T08:54:50;101103.34;;;15.68;100.00
44765;BME280;30484;52.382;5.260;2023-04-28T08:57:20;101099.09;;;15.51;100.00
44765;BME280;30484;52.382;5.260;2023-04-28T08:59:48;101097.31;;;15.37;100.00
44765;BME280;30484;52.382;5.260;2023-04-28T09:02:18;101082.09;;;16.29;100.00
44765;BME280;30484;52.382;5.260;2023-04-28T09:04:48;101094.81;;;16.27;100.00
44765;BME280;30484;52.382;5.260;2023-04-28T09:07:20;101097.88;;;15.42;100.00
44765;BME280;30484;52.382;5.260;2023-04-28T09:10:00;101098.47;;;16.00;100.00
44765;BME280;30484;52.382;5.260;2023-04-28T09:12:40;101100.75;;;16.19;100.00
44765;BME280;30484;52.382;5.260;2023-04-28T09:15:09;101091.34;;;15.86;100.00
44765;BME280;30484;52.382;5.260;2023-04-28T09:17:48;101094.72;;;15.08;100.00
44765;BME280;30484;52.382;5.260;2023-04-28T09:20:24;101096.03;;;14.88;100.00
44765;BME280;30484;52.382;5.260;2023-04-28T09:23:12;101088.13;;;16.07;100.00
44765;BME280;30484;52.382;5.260;2023-04-28T09:25:59;101091.25;;;16.27;100.00
44765;BME280;30484;52.382;5.260;2023-04-28T09:28:28;101093.84;;;15.62;100.00
44765;BME280;30484;52.382;5.260;2023-04-28T09:30:58;101080.50;;;15.61;100.00
44765;BME280;30484;52.382;5.260;2023-04-28T09:33:27;101084.56;;;16.19;100.00
44765;BME280;30484;52.382;5.260;2023-04-28T09:35:57;101077.56;;;16.17;100.00
44765;BME280;30484;52.382;5.260;2023-04-28T09:38:27;101074.75;;;16.31;100.00
44765;BME280;30484;52.382;5.260;2023-04-28T09:40:58;101086.00;;;15.72;100.00
44765;BME280;30484;52.382;5.260;2023-04-28T09:43:30;101086.38;;;15.93;100.00
44765;BME280;30484;52.382;5.260;2023-04-28T09:46:03;101082.25;;;16.78;100.00
44765;BME280;30484;52.382;5.260;2023-04-28T09:48:35;101082.44;;;16.37;100.00
44765;BME280;30484;52.382;5.260;2023-04-28T09:51:09;101084.91;;;16.41;100.00
44765;BME280;30484;52.382;5.260;2023-04-28T09:53:41;101075.19;;;16.25;100.00
44765;BME280;30484;52.382;5.260;2023-04-28T09:56:10;101091.75;;;16.70;100.00
44765;BME280;30484;52.382;5.260;2023-04-28T09:58:42;101082.97;;;16.93;100.00
44765;BME280;30484;52.382;5.260;2023-04-28T10:01:13;101077.66;;;16.15;100.00
44765;BME280;30484;52.382;5.260;2023-04-28T10:03:46;101076.69;;;16.55;100.00
44765;BME280;30484;52.382;5.260;2023-04-28T10:06:17;101069.88;;;16.62;100.00
44765;BME280;30484;52.382;5.260;2023-04-28T10:08:50;101077.28;;;16.71;100.00
44765;BME280;30484;52.382;5.260;2023-04-28T10:11:19;101077.00;;;17.13;100.00
44765;BME280;30484;52.382;5.260;2023-04-28T10:13:52;101081.97;;;16.44;100.00
44765;BME280;30484;52.382;5.260;2023-04-28T10:16:23;101075.31;;;16.99;100.00
44765;BME280;30484;52.382;5.260;2023-04-28T10:19:19;101081.88;;;16.32;100.00
44765;BME280;30484;52.382;5.260;2023-04-28T10:22:00;101082.56;;;16.99;100.00
44765;BME280;30484;52.382;5.260;2023-04-28T10:24:52;101072.31;;;16.91;100.00
44765;BME280;30484;52.382;5.260;2023-04-28T10:27:29;101074.84;;;16.43;100.00
44765;BME280;30484;52.382;5.260;2023-04-28T10:30:10;101072.59;;;16.99;100.00
44765;BME280;30484;52.382;5.260;2023-04-28T10:33:22;101067.84;;;16.27;100.00
44765;BME280;30484;52.382;5.260;2023-04-28T10:35:54;101080.03;;;16.20;100.00
44765;BME280;30484;52.382;5.260;2023-04-28T10:38:23;101075.97;;;16.90;100.00
44765;BME280;30484;52.382;5.260;2023-04-28T10:40:55;101075.50;;;17.09;100.00
44765;BME280;30484;52.382;5.260;2023-04-28T10:43:38;101080.59;;;16.25;100.00
44765;BME280;30484;52.382;5.260;2023-04-28T10:46:08;101076.03;;;17.01;100.00
44765;BME280;30484;52.382;5.260;2023-04-28T10:48:57;101083.06;;;17.04;100.00
44765;BME280;30484;52.382;5.260;2023-04-28T10:51:29;101075.13;;;16.77;100.00
44765;BME280;30484;52.382;5.260;2023-04-28T10:54:16;101080.31;;;17.17;100.00
44765;BME280;30484;52.382;5.260;2023-04-28T10:57:20;101071.22;;;17.66;100.00
44765;BME280;30484;52.382;5.260;2023-04-28T10:59:50;101077.25;;;17.46;100.00
44765;BME280;30484;52.382;5.260;2023-04-28T11:02:40;101081.81;;;17.81;100.00
44765;BME280;30484;52.382;5.260;2023-04-28T11:05:16;101091.09;;;17.17;100.00
44765;BME280;30484;52.382;5.260;2023-04-28T11:08:30;101094.31;;;16.98;100.00
44765;BME280;30484;52.382;5.260;2023-04-28T11:11:22;101083.13;;;17.39;100.00
44765;BME280;30484;52.382;5.260;2023-04-28T11:14:29;101077.97;;;17.36;100.00
44765;BME280;30484;52.382;5.260;2023-04-28T11:16:49;101080.13;;;17.31;100.00
44765;BME280;30484;52.382;5.260;2023-04-28T11:19:20;101073.16;;;17.64;100.00
44765;BME280;30484;52.382;5.260;2023-04-28T11:21:50;101076.56;;;17.06;100.00
44765;BME280;30484;52.382;5.260;2023-04-28T11:24:19;101071.72;;;17.83;100.00
44765;BME280;30484;52.382;5.260;2023-04-28T11:26:48;101063.56;;;17.24;100.00
44765;BME280;30484;52.382;5.260;2023-04-28T11:29:30;101063.25;;;18.11;100.00
44765;BME280;30484;52.382;5.260;2023-04-28T11:31:59;101063.25;;;18.34;100.00
44765;BME280;30484;52.382;5.260;2023-04-28T11:34:29;101058.81;;;18.10;100.00
44765;BME280;30484;52.382;5.260;2023-04-28T11:36:57;101063.28;;;18.45;100.00
44765;BME280;30484;52.382;5.260;2023-04-28T11:39:28;101057.47;;;18.27;100.00
44765;BME280;30484;52.382;5.260;2023-04-28T11:41:58;101061.78;;;18.53;100.00
44765;BME280;30484;52.382;5.260;2023-04-28T11:44:30;101062.13;;;17.67;100.00
44765;BME280;30484;52.382;5.260;2023-04-28T11:47:01;101064.50;;;17.48;100.00
44765;BME280;30484;52.382;5.260;2023-04-28T11:49:31;101060.91;;;18.29;100.00
44765;BME280;30484;52.382;5.260;2023-04-28T11:52:09;101063.13;;;18.13;100.00
44765;BME280;30484;52.382;5.260;2023-04-28T11:54:40;101062.25;;;18.35;100.00
44765;BME280;30484;52.382;5.260;2023-04-28T11:57:17;101055.41;;;17.84;100.00
44765;BME280;30484;52.382;5.260;2023-04-28T11:59:48;101056.03;;;17.88;100.00
44765;BME280;30484;52.382;5.260;2023-04-28T12:02:24;101058.56;;;18.59;100.00
44765;BME280;30484;52.382;5.260;2023-04-28T12:05:03;101052.53;;;18.44;100.00
44765;BME280;30484;52.382;5.260;2023-04-28T12:07:40;101067.06;;;18.54;100.00
44765;BME280;30484;52.382;5.260;2023-04-28T12:10:11;101052.84;;;19.19;100.00
44765;BME280;30484;52.382;5.260;2023-04-28T12:12:40;101061.16;;;18.94;100.00
44765;BME280;30484;52.382;5.260;2023-04-28T12:15:20;101057.03;;;19.11;100.00
44765;BME280;30484;52.382;5.260;2023-04-28T12:17:50;101045.66;;;19.29;100.00
44765;BME280;30484;52.382;5.260;2023-04-28T12:20:35;101049.56;;;19.36;100.00
44765;BME280;30484;52.382;5.260;2023-04-28T12:23:05;101042.41;;;19.35;100.00
44765;BME280;30484;52.382;5.260;2023-04-28T12:25:43;101053.09;;;19.16;100.00
44765;BME280;30484;52.382;5.260;2023-04-28T12:28:11;101053.25;;;19.03;100.00
44765;BME280;30484;52.382;5.260;2023-04-28T12:30:41;101054.66;;;19.51;100.00
44765;BME280;30484;52.382;5.260;2023-04-28T12:33:22;101040.53;;;19.14;100.00
44765;BME280;30484;52.382;5.260;2023-04-28T12:35:51;101046.88;;;19.25;100.00
44765;BME280;30484;52.382;5.260;2023-04-28T12:38:21;101051.09;;;19.50;100.00
44765;BME280;30484;52.382;5.260;2023-04-28T12:40:50;101046.53;;;19.51;100.00
44765;BME280;30484;52.382;5.260;2023-04-28T12:43:18;101052.66;;;19.64;100.00
44765;BME280;30484;52.382;5.260;2023-04-28T12:45:52;101057.28;;;19.41;100.00
44765;BME280;30484;52.382;5.260;2023-04-28T12:48:22;101059.16;;;19.40;100.00
44765;BME280;30484;52.382;5.260;2023-04-28T12:50:52;101052.56;;;19.54;100.00
44765;BME280;30484;52.382;5.260;2023-04-28T12:53:21;101065.03;;;19.13;100.00
44765;BME280;30484;52.382;5.260;2023-04-28T12:55:49;101052.78;;;19.83;100.00
44765;BME280;30484;52.382;5.260;2023-04-28T12:58:18;101061.84;;;19.40;100.00
44765;BME280;30484;52.382;5.260;2023-04-28T13:00:47;101062.22;;;19.68;100.00
44765;BME280;30484;52.382;5.260;2023-04-28T13:03:17;101059.53;;;18.92;100.00
44765;BME280;30484;52.382;5.260;2023-04-28T13:05:48;101064.94;;;19.03;100.00